sensor_id;sensor_type;location;lat;lon;timestamp;P1;durP1;ratioP1;P2;durP2;ratioP2
22549;SDS011;11441;57.164;-2.120;2022-12-17T00:01:07;0.37;;;0.17;;
22549;SDS011;11441;57.164;-2.120;2022-12-17T00:03:53;0.20;;;0.20;;
22549;SDS011;11441;57.164;-2.120;2022-12-17T00:06:38;0.10;;;0.10;;
22549;SDS011;11441;57.164;-2.120;2022-12-17T00:09:42;0.17;;;0.17;;
22549;SDS011;11441;57.164;-2.120;2022-12-17T00:12:28;0.10;;;0.10;;
22549;SDS011;11441;57.164;-2.120;2022-12-17T00:15:13;0.77;;;0.27;;
22549;SDS011;11441;57.164;-2.120;2022-12-17T00:18:05;0.10;;;0.10;;
22549;SDS011;11441;57.164;-2.120;2022-12-17T00:20:52;0.10;;;0.10;;
22549;SDS011;11441;57.164;-2.120;2022-12-17T00:23:57;1.37;;;0.20;;
22549;SDS011;11441;57.164;-2.120;2022-12-17T00:26:42;0.10;;;0.10;;
22549;SDS011;11441;57.164;-2.120;2022-12-17T00:32:32;0.20;;;0.20;;
22549;SDS011;11441;57.164;-2.120;2022-12-17T00:35:17;0.10;;;0.10;;
22549;SDS011;11441;57.164;-2.120;2022-12-17T00:38:02;0.10;;;0.10;;
22549;SDS011;11441;57.164;-2.120;2022-12-17T00:40:51;0.60;;;0.30;;
22549;SDS011;11441;57.164;-2.120;2022-12-17T00:44:13;0.30;;;0.10;;
22549;SDS011;11441;57.164;-2.120;2022-12-17T00:47:17;0.20;;;0.20;;
22549;SDS011;11441;57.164;-2.120;2022-12-17T00:50:03;0.40;;;0.20;;
22549;SDS011;11441;57.164;-2.120;2022-12-17T00:52:50;0.20;;;0.20;;
22549;SDS011;11441;57.164;-2.120;2022-12-17T00:55:36;0.30;;;0.30;;
22549;SDS011;11441;57.164;-2.120;2022-12-17T00:58:22;0.20;;;0.20;;
22549;SDS011;11441;57.164;-2.120;2022-12-17T01:01:09;1.80;;;0.20;;
22549;SDS011;11441;57.164;-2.120;2022-12-17T01:03:55;0.10;;;0.10;;
22549;SDS011;11441;57.164;-2.120;2022-12-17T01:06:40;0.20;;;0.20;;
22549;SDS011;11441;57.164;-2.120;2022-12-17T01:09:28;0.10;;;0.10;;
22549;SDS011;11441;57.164;-2.120;2022-12-17T01:12:14;0.20;;;0.20;;
22549;SDS011;11441;57.164;-2.120;2022-12-17T01:14:59;0.20;;;0.20;;
22549;SDS011;11441;57.164;-2.120;2022-12-17T01:17:45;0.10;;;0.10;;
22549;SDS011;11441;57.164;-2.120;2022-12-17T01:20:30;0.10;;;0.10;;
22549;SDS011;11441;57.164;-2.120;2022-12-17T01:23:16;0.10;;;0.10;;
22549;SDS011;11441;57.164;-2.120;2022-12-17T01:26:02;0.10;;;0.10;;
22549;SDS011;11441;57.164;-2.120;2022-12-17T01:29:06;0.20;;;0.20;;
22549;SDS011;11441;57.164;-2.120;2022-12-17T01:31:51;0.87;;;0.20;;
22549;SDS011;11441;57.164;-2.120;2022-12-17T01:34:37;0.53;;;0.30;;
22549;SDS011;11441;57.164;-2.120;2022-12-17T01:37:22;0.20;;;0.20;;
22549;SDS011;11441;57.164;-2.120;2022-12-17T01:40:08;2.13;;;0.30;;
22549;SDS011;11441;57.164;-2.120;2022-12-17T01:43:13;0.40;;;0.30;;
22549;SDS011;11441;57.164;-2.120;2022-12-17T01:46:14;1.13;;;0.60;;
22549;SDS011;11441;57.164;-2.120;2022-12-17T01:49:00;0.50;;;0.50;;
22549;SDS011;11441;57.164;-2.120;2022-12-17T01:51:45;0.93;;;0.83;;
22549;SDS011;11441;57.164;-2.120;2022-12-17T01:54:32;0.50;;;0.50;;
22549;SDS011;11441;57.164;-2.120;2022-12-17T01:57:18;0.90;;;0.80;;
22549;SDS011;11441;57.164;-2.120;2022-12-17T02:00:05;0.87;;;0.80;;
22549;SDS011;11441;57.164;-2.120;2022-12-17T02:02:54;0.67;;;0.67;;
22549;SDS011;11441;57.164;-2.120;2022-12-17T02:08:46;0.90;;;0.70;;
22549;SDS011;11441;57.164;-2.120;2022-12-17T02:14:55;0.83;;;0.77;;
22549;SDS011;11441;57.164;-2.120;2022-12-17T02:17:47;0.93;;;0.73;;
22549;SDS011;11441;57.164;-2.120;2022-12-17T02:20:44;0.23;;;0.23;;
22549;SDS011;11441;57.164;-2.120;2022-12-17T02:23:35;0.20;;;0.20;;
22549;SDS011;11441;57.164;-2.120;2022-12-17T02:26:45;0.20;;;0.20;;
22549;SDS011;11441;57.164;-2.120;2022-12-17T02:29:42;0.47;;;0.20;;
22549;SDS011;11441;57.164;-2.120;2022-12-17T02:32:33;0.20;;;0.20;;
22549;SDS011;11441;57.164;-2.120;2022-12-17T02:35:22;0.10;;;0.10;;
22549;SDS011;11441;57.164;-2.120;2022-12-17T02:38:19;0.20;;;0.20;;
22549;SDS011;11441;57.164;-2.120;2022-12-17T02:41:11;0.20;;;0.20;;
22549;SDS011;11441;57.164;-2.120;2022-12-17T02:44:00;0.20;;;0.10;;
22549;SDS011;11441;57.164;-2.120;2022-12-17T02:46:47;0.20;;;0.20;;
22549;SDS011;11441;57.164;-2.120;2022-12-17T02:49:36;0.33;;;0.30;;
22549;SDS011;11441;57.164;-2.120;2022-12-17T02:52:21;0.20;;;0.20;;
22549;SDS011;11441;57.164;-2.120;2022-12-17T02:55:08;0.37;;;0.20;;
22549;SDS011;11441;57.164;-2.120;2022-12-17T02:57:54;0.10;;;0.10;;
22549;SDS011;11441;57.164;-2.120;2022-12-17T03:00:40;0.17;;;0.17;;
22549;SDS011;11441;57.164;-2.120;2022-12-17T03:03:25;0.20;;;0.20;;
22549;SDS011;11441;57.164;-2.120;2022-12-17T03:06:15;0.17;;;0.17;;
22549;SDS011;11441;57.164;-2.120;2022-12-17T03:09:01;0.30;;;0.30;;
22549;SDS011;11441;57.164;-2.120;2022-12-17T03:11:46;1.70;;;0.30;;
22549;SDS011;11441;57.164;-2.120;2022-12-17T03:14:32;0.20;;;0.20;;
22549;SDS011;11441;57.164;-2.120;2022-12-17T03:17:17;0.10;;;0.10;;
22549;SDS011;11441;57.164;-2.120;2022-12-17T03:20:03;0.40;;;0.20;;
22549;SDS011;11441;57.164;-2.120;2022-12-17T03:22:48;0.13;;;0.13;;
22549;SDS011;11441;57.164;-2.120;2022-12-17T03:25:34;0.20;;;0.20;;
22549;SDS011;11441;57.164;-2.120;2022-12-17T03:28:19;0.57;;;0.23;;
22549;SDS011;11441;57.164;-2.120;2022-12-17T03:31:05;0.40;;;0.30;;
22549;SDS011;11441;57.164;-2.120;2022-12-17T03:33:50;0.30;;;0.20;;
22549;SDS011;11441;57.164;-2.120;2022-12-17T03:36:35;0.30;;;0.30;;
22549;SDS011;11441;57.164;-2.120;2022-12-17T03:39:21;0.20;;;0.20;;
22549;SDS011;11441;57.164;-2.120;2022-12-17T03:45:10;0.37;;;0.37;;
22549;SDS011;11441;57.164;-2.120;2022-12-17T03:48:09;0.40;;;0.40;;
22549;SDS011;11441;57.164;-2.120;2022-12-17T03:50:56;0.40;;;0.40;;
22549;SDS011;11441;57.164;-2.120;2022-12-17T03:53:42;2.10;;;0.50;;
22549;SDS011;11441;57.164;-2.120;2022-12-17T03:56:27;0.50;;;0.50;;
22549;SDS011;11441;57.164;-2.120;2022-12-17T03:59:13;0.40;;;0.30;;
22549;SDS011;11441;57.164;-2.120;2022-12-17T04:01:59;0.97;;;0.40;;
22549;SDS011;11441;57.164;-2.120;2022-12-17T04:04:45;0.27;;;0.27;;
22549;SDS011;11441;57.164;-2.120;2022-12-17T04:07:30;0.40;;;0.40;;
22549;SDS011;11441;57.164;-2.120;2022-12-17T04:10:15;0.50;;;0.50;;
22549;SDS011;11441;57.164;-2.120;2022-12-17T04:13:00;0.33;;;0.30;;
22549;SDS011;11441;57.164;-2.120;2022-12-17T04:15:46;0.40;;;0.40;;
22549;SDS011;11441;57.164;-2.120;2022-12-17T04:18:49;0.30;;;0.30;;
22549;SDS011;11441;57.164;-2.120;2022-12-17T04:21:35;0.40;;;0.40;;
22549;SDS011;11441;57.164;-2.120;2022-12-17T04:24:20;0.50;;;0.40;;
22549;SDS011;11441;57.164;-2.120;2022-12-17T04:27:05;0.63;;;0.40;;
22549;SDS011;11441;57.164;-2.120;2022-12-17T04:29:51;0.43;;;0.40;;
22549;SDS011;11441;57.164;-2.120;2022-12-17T04:33:08;0.57;;;0.47;;
22549;SDS011;11441;57.164;-2.120;2022-12-17T04:35:54;0.30;;;0.30;;
22549;SDS011;11441;57.164;-2.120;2022-12-17T04:38:39;0.47;;;0.30;;
22549;SDS011;11441;57.164;-2.120;2022-12-17T04:41:24;0.57;;;0.57;;
22549;SDS011;11441;57.164;-2.120;2022-12-17T04:44:10;0.30;;;0.30;;
22549;SDS011;11441;57.164;-2.120;2022-12-17T04:46:55;0.30;;;0.30;;
22549;SDS011;11441;57.164;-2.120;2022-12-17T04:49:40;0.20;;;0.20;;
22549;SDS011;11441;57.164;-2.120;2022-12-17T04:52:26;0.30;;;0.30;;
22549;SDS011;11441;57.164;-2.120;2022-12-17T04:55:11;0.20;;;0.20;;
22549;SDS011;11441;57.164;-2.120;2022-12-17T04:58:03;0.53;;;0.20;;
22549;SDS011;11441;57.164;-2.120;2022-12-17T05:00:52;0.43;;;0.23;;
22549;SDS011;11441;57.164;-2.120;2022-12-17T05:03:38;0.30;;;0.30;;
22549;SDS011;11441;57.164;-2.120;2022-12-17T05:06:24;0.20;;;0.20;;
22549;SDS011;11441;57.164;-2.120;2022-12-17T05:09:10;0.20;;;0.20;;
22549;SDS011;11441;57.164;-2.120;2022-12-17T05:12:14;0.20;;;0.20;;
22549;SDS011;11441;57.164;-2.120;2022-12-17T05:14:59;0.20;;;0.20;;
22549;SDS011;11441;57.164;-2.120;2022-12-17T05:17:44;0.37;;;0.37;;
22549;SDS011;11441;57.164;-2.120;2022-12-17T05:20:30;0.20;;;0.20;;
22549;SDS011;11441;57.164;-2.120;2022-12-17T05:23:15;1.13;;;0.30;;
22549;SDS011;11441;57.164;-2.120;2022-12-17T05:28:51;0.10;;;0.10;;
22549;SDS011;11441;57.164;-2.120;2022-12-17T05:34:45;0.20;;;0.20;;
22549;SDS011;11441;57.164;-2.120;2022-12-17T05:37:30;0.20;;;0.20;;
22549;SDS011;11441;57.164;-2.120;2022-12-17T05:40:16;0.20;;;0.20;;
22549;SDS011;11441;57.164;-2.120;2022-12-17T05:46:05;0.87;;;0.40;;
22549;SDS011;11441;57.164;-2.120;2022-12-17T05:48:51;0.20;;;0.20;;
22549;SDS011;11441;57.164;-2.120;2022-12-17T05:51:36;0.20;;;0.20;;
22549;SDS011;11441;57.164;-2.120;2022-12-17T05:54:22;2.40;;;0.40;;
22549;SDS011;11441;57.164;-2.120;2022-12-17T05:57:07;2.30;;;0.30;;
22549;SDS011;11441;57.164;-2.120;2022-12-17T05:59:53;0.30;;;0.20;;
22549;SDS011;11441;57.164;-2.120;2022-12-17T06:02:38;0.30;;;0.30;;
22549;SDS011;11441;57.164;-2.120;2022-12-17T06:05:24;0.20;;;0.20;;
22549;SDS011;11441;57.164;-2.120;2022-12-17T06:08:09;0.20;;;0.20;;
22549;SDS011;11441;57.164;-2.120;2022-12-17T06:10:57;1.87;;;0.30;;
22549;SDS011;11441;57.164;-2.120;2022-12-17T06:13:43;0.30;;;0.30;;
22549;SDS011;11441;57.164;-2.120;2022-12-17T06:16:29;0.30;;;0.30;;
22549;SDS011;11441;57.164;-2.120;2022-12-17T06:19:14;0.20;;;0.20;;
22549;SDS011;11441;57.164;-2.120;2022-12-17T06:21:59;0.30;;;0.30;;
22549;SDS011;11441;57.164;-2.120;2022-12-17T06:24:45;0.57;;;0.30;;
22549;SDS011;11441;57.164;-2.120;2022-12-17T06:30:41;0.23;;;0.23;;
22549;SDS011;11441;57.164;-2.120;2022-12-17T06:33:27;0.20;;;0.20;;
22549;SDS011;11441;57.164;-2.120;2022-12-17T06:36:12;0.40;;;0.40;;
22549;SDS011;11441;57.164;-2.120;2022-12-17T06:38:57;0.40;;;0.40;;
22549;SDS011;11441;57.164;-2.120;2022-12-17T06:41:43;0.30;;;0.30;;
22549;SDS011;11441;57.164;-2.120;2022-12-17T06:44:30;0.30;;;0.30;;
22549;SDS011;11441;57.164;-2.120;2022-12-17T06:47:16;0.20;;;0.20;;
22549;SDS011;11441;57.164;-2.120;2022-12-17T06:50:01;0.30;;;0.30;;
22549;SDS011;11441;57.164;-2.120;2022-12-17T06:52:47;1.20;;;0.37;;
22549;SDS011;11441;57.164;-2.120;2022-12-17T06:55:51;0.20;;;0.20;;
22549;SDS011;11441;57.164;-2.120;2022-12-17T06:58:37;0.37;;;0.30;;
22549;SDS011;11441;57.164;-2.120;2022-12-17T07:01:21;0.30;;;0.30;;
22549;SDS011;11441;57.164;-2.120;2022-12-17T07:04:25;0.50;;;0.30;;
22549;SDS011;11441;57.164;-2.120;2022-12-17T07:07:11;0.90;;;0.40;;
22549;SDS011;11441;57.164;-2.120;2022-12-17T07:10:17;1.90;;;0.50;;
22549;SDS011;11441;57.164;-2.120;2022-12-17T07:13:06;0.30;;;0.30;;
22549;SDS011;11441;57.164;-2.120;2022-12-17T07:15:52;2.10;;;0.30;;
22549;SDS011;11441;57.164;-2.120;2022-12-17T07:18:38;0.43;;;0.40;;
22549;SDS011;11441;57.164;-2.120;2022-12-17T07:21:24;0.30;;;0.30;;
22549;SDS011;11441;57.164;-2.120;2022-12-17T07:24:09;0.20;;;0.20;;
22549;SDS011;11441;57.164;-2.120;2022-12-17T07:26:55;0.23;;;0.23;;
22549;SDS011;11441;57.164;-2.120;2022-12-17T07:29:41;0.40;;;0.40;;
22549;SDS011;11441;57.164;-2.120;2022-12-17T07:32:26;0.20;;;0.20;;
22549;SDS011;11441;57.164;-2.120;2022-12-17T07:35:11;0.33;;;0.30;;
22549;SDS011;11441;57.164;-2.120;2022-12-17T07:38:00;0.73;;;0.20;;
22549;SDS011;11441;57.164;-2.120;2022-12-17T07:41:06;0.20;;;0.20;;
22549;SDS011;11441;57.164;-2.120;2022-12-17T07:43:52;0.30;;;0.30;;
22549;SDS011;11441;57.164;-2.120;2022-12-17T07:46:37;0.20;;;0.20;;
22549;SDS011;11441;57.164;-2.120;2022-12-17T07:49:22;0.40;;;0.40;;
22549;SDS011;11441;57.164;-2.120;2022-12-17T07:52:07;0.40;;;0.40;;
22549;SDS011;11441;57.164;-2.120;2022-12-17T07:54:53;0.40;;;0.40;;
22549;SDS011;11441;57.164;-2.120;2022-12-17T07:57:43;0.43;;;0.43;;
22549;SDS011;11441;57.164;-2.120;2022-12-17T08:00:29;1.50;;;0.40;;
22549;SDS011;11441;57.164;-2.120;2022-12-17T08:03:15;0.40;;;0.40;;
22549;SDS011;11441;57.164;-2.120;2022-12-17T08:06:01;0.43;;;0.43;;
22549;SDS011;11441;57.164;-2.120;2022-12-17T08:08:46;0.40;;;0.40;;
22549;SDS011;11441;57.164;-2.120;2022-12-17T08:11:31;0.67;;;0.30;;
22549;SDS011;11441;57.164;-2.120;2022-12-17T08:14:16;0.60;;;0.60;;
22549;SDS011;11441;57.164;-2.120;2022-12-17T08:17:02;0.60;;;0.60;;
22549;SDS011;11441;57.164;-2.120;2022-12-17T08:19:47;0.77;;;0.60;;
22549;SDS011;11441;57.164;-2.120;2022-12-17T08:22:33;0.40;;;0.40;;
22549;SDS011;11441;57.164;-2.120;2022-12-17T08:25:18;3.40;;;0.50;;
22549;SDS011;11441;57.164;-2.120;2022-12-17T08:28:03;0.43;;;0.43;;
22549;SDS011;11441;57.164;-2.120;2022-12-17T08:31:09;0.73;;;0.73;;
22549;SDS011;11441;57.164;-2.120;2022-12-17T08:33:54;0.73;;;0.73;;
22549;SDS011;11441;57.164;-2.120;2022-12-17T08:36:39;0.40;;;0.40;;
22549;SDS011;11441;57.164;-2.120;2022-12-17T08:39:25;0.70;;;0.60;;
22549;SDS011;11441;57.164;-2.120;2022-12-17T08:42:11;0.47;;;0.47;;
22549;SDS011;11441;57.164;-2.120;2022-12-17T08:44:56;0.77;;;0.77;;
22549;SDS011;11441;57.164;-2.120;2022-12-17T08:47:41;0.67;;;0.67;;
22549;SDS011;11441;57.164;-2.120;2022-12-17T08:50:29;1.13;;;1.10;;
22549;SDS011;11441;57.164;-2.120;2022-12-17T08:53:15;0.90;;;0.90;;
22549;SDS011;11441;57.164;-2.120;2022-12-17T08:56:00;0.70;;;0.70;;
22549;SDS011;11441;57.164;-2.120;2022-12-17T08:58:46;2.00;;;0.70;;
22549;SDS011;11441;57.164;-2.120;2022-12-17T09:01:49;1.40;;;0.90;;
22549;SDS011;11441;57.164;-2.120;2022-12-17T09:04:36;1.10;;;1.10;;
22549;SDS011;11441;57.164;-2.120;2022-12-17T09:07:21;1.30;;;0.90;;
22549;SDS011;11441;57.164;-2.120;2022-12-17T09:10:06;1.40;;;1.30;;
22549;SDS011;11441;57.164;-2.120;2022-12-17T09:13:36;1.47;;;1.37;;
22549;SDS011;11441;57.164;-2.120;2022-12-17T09:16:22;1.10;;;1.00;;
22549;SDS011;11441;57.164;-2.120;2022-12-17T09:19:25;0.70;;;0.70;;
22549;SDS011;11441;57.164;-2.120;2022-12-17T09:22:11;0.77;;;0.70;;
22549;SDS011;11441;57.164;-2.120;2022-12-17T09:24:57;1.90;;;1.00;;
22549;SDS011;11441;57.164;-2.120;2022-12-17T09:27:43;1.90;;;1.40;;
22549;SDS011;11441;57.164;-2.120;2022-12-17T09:30:28;1.07;;;0.93;;
22549;SDS011;11441;57.164;-2.120;2022-12-17T09:33:14;1.00;;;1.00;;
22549;SDS011;11441;57.164;-2.120;2022-12-17T09:36:01;0.63;;;0.63;;
22549;SDS011;11441;57.164;-2.120;2022-12-17T09:38:48;0.70;;;0.70;;
22549;SDS011;11441;57.164;-2.120;2022-12-17T09:45:00;0.40;;;0.40;;
22549;SDS011;11441;57.164;-2.120;2022-12-17T09:51:07;0.80;;;0.80;;
22549;SDS011;11441;57.164;-2.120;2022-12-17T09:54:09;0.77;;;0.77;;
22549;SDS011;11441;57.164;-2.120;2022-12-17T09:57:04;0.80;;;0.80;;
22549;SDS011;11441;57.164;-2.120;2022-12-17T10:03:44;1.03;;;0.93;;
22549;SDS011;11441;57.164;-2.120;2022-12-17T10:06:30;0.60;;;0.60;;
22549;SDS011;11441;57.164;-2.120;2022-12-17T10:09:17;1.20;;;1.10;;
22549;SDS011;11441;57.164;-2.120;2022-12-17T10:12:13;1.23;;;1.03;;
22549;SDS011;11441;57.164;-2.120;2022-12-17T10:15:01;1.20;;;1.10;;
22549;SDS011;11441;57.164;-2.120;2022-12-17T10:17:46;0.97;;;0.97;;
22549;SDS011;11441;57.164;-2.120;2022-12-17T10:20:54;0.80;;;0.80;;
22549;SDS011;11441;57.164;-2.120;2022-12-17T10:23:42;0.80;;;0.80;;
22549;SDS011;11441;57.164;-2.120;2022-12-17T10:26:29;1.30;;;1.20;;
22549;SDS011;11441;57.164;-2.120;2022-12-17T10:29:17;0.80;;;0.80;;
22549;SDS011;11441;57.164;-2.120;2022-12-17T10:32:32;1.07;;;1.07;;
22549;SDS011;11441;57.164;-2.120;2022-12-17T10:35:36;1.33;;;1.23;;
22549;SDS011;11441;57.164;-2.120;2022-12-17T10:38:25;1.53;;;1.40;;
22549;SDS011;11441;57.164;-2.120;2022-12-17T10:41:28;3.13;;;1.80;;
22549;SDS011;11441;57.164;-2.120;2022-12-17T10:47:10;1.20;;;1.17;;
22549;SDS011;11441;57.164;-2.120;2022-12-17T10:49:57;3.10;;;1.77;;
22549;SDS011;11441;57.164;-2.120;2022-12-17T10:53:25;4.00;;;1.53;;
22549;SDS011;11441;57.164;-2.120;2022-12-17T10:59:28;1.43;;;1.33;;
22549;SDS011;11441;57.164;-2.120;2022-12-17T11:05:41;0.80;;;0.80;;
22549;SDS011;11441;57.164;-2.120;2022-12-17T11:08:27;2.47;;;1.10;;
22549;SDS011;11441;57.164;-2.120;2022-12-17T11:11:15;1.87;;;1.27;;
22549;SDS011;11441;57.164;-2.120;2022-12-17T11:14:00;1.10;;;1.10;;
22549;SDS011;11441;57.164;-2.120;2022-12-17T11:16:52;1.53;;;1.43;;
22549;SDS011;11441;57.164;-2.120;2022-12-17T11:26:07;8.33;;;0.97;;
22549;SDS011;11441;57.164;-2.120;2022-12-17T11:28:57;3.50;;;1.50;;
22549;SDS011;11441;57.164;-2.120;2022-12-17T11:35:07;4.97;;;1.63;;
22549;SDS011;11441;57.164;-2.120;2022-12-17T11:38:11;1.47;;;1.23;;
22549;SDS011;11441;57.164;-2.120;2022-12-17T11:41:20;2.23;;;1.40;;
22549;SDS011;11441;57.164;-2.120;2022-12-17T11:50:27;1.90;;;1.67;;
22549;SDS011;11441;57.164;-2.120;2022-12-17T11:56:51;4.10;;;1.60;;
22549;SDS011;11441;57.164;-2.120;2022-12-17T11:59:48;4.53;;;1.27;;
22549;SDS011;11441;57.164;-2.120;2022-12-17T12:05:43;1.23;;;1.20;;
22549;SDS011;11441;57.164;-2.120;2022-12-17T12:12:11;1.60;;;1.03;;
22549;SDS011;11441;57.164;-2.120;2022-12-17T12:18:09;1.63;;;1.17;;
22549;SDS011;11441;57.164;-2.120;2022-12-17T12:30:55;1.37;;;0.60;;
22549;SDS011;11441;57.164;-2.120;2022-12-17T12:34:03;1.97;;;0.90;;
22549;SDS011;11441;57.164;-2.120;2022-12-17T12:36:55;2.33;;;0.77;;
22549;SDS011;11441;57.164;-2.120;2022-12-17T12:46:29;2.77;;;1.43;;
22549;SDS011;11441;57.164;-2.120;2022-12-17T12:49:32;1.70;;;1.60;;
22549;SDS011;11441;57.164;-2.120;2022-12-17T12:52:23;3.23;;;2.37;;
22549;SDS011;11441;57.164;-2.120;2022-12-17T12:55:10;2.27;;;1.93;;
22549;SDS011;11441;57.164;-2.120;2022-12-17T12:58:30;1.40;;;1.30;;
22549;SDS011;11441;57.164;-2.120;2022-12-17T13:01:10;1.03;;;0.70;;
22549;SDS011;11441;57.164;-2.120;2022-12-17T13:03:56;1.37;;;0.70;;
22549;SDS011;11441;57.164;-2.120;2022-12-17T13:09:37;2.90;;;1.33;;
22549;SDS011;11441;57.164;-2.120;2022-12-17T13:12:43;2.63;;;1.80;;
22549;SDS011;11441;57.164;-2.120;2022-12-17T13:15:17;4.47;;;2.10;;
22549;SDS011;11441;57.164;-2.120;2022-12-17T13:17:55;2.83;;;1.93;;
22549;SDS011;11441;57.164;-2.120;2022-12-17T13:20:33;3.53;;;2.00;;
22549;SDS011;11441;57.164;-2.120;2022-12-17T13:26:02;5.53;;;2.10;;
22549;SDS011;11441;57.164;-2.120;2022-12-17T13:29:10;1.03;;;0.40;;
22549;SDS011;11441;57.164;-2.120;2022-12-17T13:42:58;2.17;;;0.80;;
22549;SDS011;11441;57.164;-2.120;2022-12-17T13:45:25;1.90;;;0.40;;
22549;SDS011;11441;57.164;-2.120;2022-12-17T13:47:57;1.57;;;0.37;;
22549;SDS011;11441;57.164;-2.120;2022-12-17T13:50:25;1.13;;;0.23;;
22549;SDS011;11441;57.164;-2.120;2022-12-17T13:53:13;3.70;;;0.60;;
22549;SDS011;11441;57.164;-2.120;2022-12-17T13:55:48;0.77;;;0.40;;
22549;SDS011;11441;57.164;-2.120;2022-12-17T13:58:24;1.27;;;0.40;;
22549;SDS011;11441;57.164;-2.120;2022-12-17T14:01:11;1.53;;;0.47;;
22549;SDS011;11441;57.164;-2.120;2022-12-17T14:03:41;0.50;;;0.30;;
22549;SDS011;11441;57.164;-2.120;2022-12-17T14:06:35;2.27;;;0.40;;
22549;SDS011;11441;57.164;-2.120;2022-12-17T14:09:03;1.80;;;0.37;;
22549;SDS011;11441;57.164;-2.120;2022-12-17T14:11:31;0.50;;;0.30;;
22549;SDS011;11441;57.164;-2.120;2022-12-17T14:16:58;1.03;;;0.30;;
22549;SDS011;11441;57.164;-2.120;2022-12-17T14:19:42;0.30;;;0.30;;
22549;SDS011;11441;57.164;-2.120;2022-12-17T14:22:15;0.70;;;0.27;;
22549;SDS011;11441;57.164;-2.120;2022-12-17T14:24:49;0.50;;;0.30;;
22549;SDS011;11441;57.164;-2.120;2022-12-17T14:27:21;1.03;;;0.37;;
22549;SDS011;11441;57.164;-2.120;2022-12-17T14:29:50;1.63;;;0.30;;
22549;SDS011;11441;57.164;-2.120;2022-12-17T14:32:24;0.70;;;0.60;;
22549;SDS011;11441;57.164;-2.120;2022-12-17T14:34:56;1.03;;;0.40;;
22549;SDS011;11441;57.164;-2.120;2022-12-17T14:37:26;0.20;;;0.20;;
22549;SDS011;11441;57.164;-2.120;2022-12-17T14:39:57;0.23;;;0.23;;
22549;SDS011;11441;57.164;-2.120;2022-12-17T14:42:28;0.93;;;0.60;;
22549;SDS011;11441;57.164;-2.120;2022-12-17T14:44:57;2.20;;;0.70;;
22549;SDS011;11441;57.164;-2.120;2022-12-17T14:47:29;3.80;;;0.47;;
22549;SDS011;11441;57.164;-2.120;2022-12-17T14:50:03;0.53;;;0.50;;
22549;SDS011;11441;57.164;-2.120;2022-12-17T14:58:07;0.90;;;0.40;;
22549;SDS011;11441;57.164;-2.120;2022-12-17T15:00:46;2.73;;;0.47;;
22549;SDS011;11441;57.164;-2.120;2022-12-17T15:03:27;2.43;;;0.37;;
22549;SDS011;11441;57.164;-2.120;2022-12-17T15:06:00;1.97;;;0.40;;
22549;SDS011;11441;57.164;-2.120;2022-12-17T15:08:33;3.40;;;0.80;;
22549;SDS011;11441;57.164;-2.120;2022-12-17T15:11:02;2.20;;;0.53;;
22549;SDS011;11441;57.164;-2.120;2022-12-17T15:13:47;1.40;;;0.60;;
22549;SDS011;11441;57.164;-2.120;2022-12-17T15:16:21;2.17;;;0.30;;
22549;SDS011;11441;57.164;-2.120;2022-12-17T15:18:49;0.57;;;0.50;;
22549;SDS011;11441;57.164;-2.120;2022-12-17T15:21:15;0.70;;;0.47;;
22549;SDS011;11441;57.164;-2.120;2022-12-17T15:23:43;1.93;;;0.50;;
22549;SDS011;11441;57.164;-2.120;2022-12-17T15:26:12;0.70;;;0.70;;
22549;SDS011;11441;57.164;-2.120;2022-12-17T15:28:43;0.40;;;0.30;;
22549;SDS011;11441;57.164;-2.120;2022-12-17T15:31:10;0.30;;;0.23;;
22549;SDS011;11441;57.164;-2.120;2022-12-17T15:34:01;0.60;;;0.47;;
22549;SDS011;11441;57.164;-2.120;2022-12-17T15:39:14;0.60;;;0.40;;
22549;SDS011;11441;57.164;-2.120;2022-12-17T15:41:41;1.33;;;0.40;;
22549;SDS011;11441;57.164;-2.120;2022-12-17T15:44:26;2.13;;;0.70;;
22549;SDS011;11441;57.164;-2.120;2022-12-17T15:47:30;1.23;;;0.80;;
22549;SDS011;11441;57.164;-2.120;2022-12-17T15:49:56;4.17;;;0.60;;
22549;SDS011;11441;57.164;-2.120;2022-12-17T15:52:23;1.20;;;0.40;;
22549;SDS011;11441;57.164;-2.120;2022-12-17T15:55:10;2.10;;;0.50;;
22549;SDS011;11441;57.164;-2.120;2022-12-17T16:00:23;2.30;;;0.63;;
22549;SDS011;11441;57.164;-2.120;2022-12-17T16:05:54;4.73;;;1.33;;
22549;SDS011;11441;57.164;-2.120;2022-12-17T16:08:21;2.27;;;1.47;;
22549;SDS011;11441;57.164;-2.120;2022-12-17T16:10:48;2.87;;;1.67;;
22549;SDS011;11441;57.164;-2.120;2022-12-17T16:13:14;1.50;;;1.03;;
22549;SDS011;11441;57.164;-2.120;2022-12-17T16:18:29;3.40;;;1.37;;
22549;SDS011;11441;57.164;-2.120;2022-12-17T16:21:03;3.57;;;2.10;;
22549;SDS011;11441;57.164;-2.120;2022-12-17T16:23:32;2.87;;;1.77;;
22549;SDS011;11441;57.164;-2.120;2022-12-17T16:25:59;4.07;;;1.90;;
22549;SDS011;11441;57.164;-2.120;2022-12-17T16:28:46;5.27;;;1.93;;
22549;SDS011;11441;57.164;-2.120;2022-12-17T16:31:13;4.80;;;2.13;;
22549;SDS011;11441;57.164;-2.120;2022-12-17T16:33:42;5.83;;;2.73;;
22549;SDS011;11441;57.164;-2.120;2022-12-17T16:36:28;7.27;;;3.97;;
22549;SDS011;11441;57.164;-2.120;2022-12-17T16:38:55;7.67;;;4.10;;
22549;SDS011;11441;57.164;-2.120;2022-12-17T16:41:22;8.20;;;4.07;;
22549;SDS011;11441;57.164;-2.120;2022-12-17T16:44:26;7.50;;;3.53;;
22549;SDS011;11441;57.164;-2.120;2022-12-17T16:46:53;4.47;;;3.00;;
22549;SDS011;11441;57.164;-2.120;2022-12-17T16:49:21;4.70;;;2.80;;
22549;SDS011;11441;57.164;-2.120;2022-12-17T16:51:52;4.00;;;2.43;;
22549;SDS011;11441;57.164;-2.120;2022-12-17T16:54:57;4.13;;;2.60;;
22549;SDS011;11441;57.164;-2.120;2022-12-17T16:58:02;5.00;;;3.33;;
22549;SDS011;11441;57.164;-2.120;2022-12-17T17:00:28;5.83;;;3.07;;
22549;SDS011;11441;57.164;-2.120;2022-12-17T17:03:15;4.07;;;3.30;;
22549;SDS011;11441;57.164;-2.120;2022-12-17T17:06:01;3.43;;;2.73;;
22549;SDS011;11441;57.164;-2.120;2022-12-17T17:09:05;5.43;;;3.07;;
22549;SDS011;11441;57.164;-2.120;2022-12-17T17:11:33;4.43;;;2.97;;
22549;SDS011;11441;57.164;-2.120;2022-12-17T17:14:00;4.77;;;2.87;;
22549;SDS011;11441;57.164;-2.120;2022-12-17T17:16:27;5.60;;;3.70;;
22549;SDS011;11441;57.164;-2.120;2022-12-17T17:18:54;8.20;;;4.83;;
22549;SDS011;11441;57.164;-2.120;2022-12-17T17:23:55;10.17;;;6.07;;
22549;SDS011;11441;57.164;-2.120;2022-12-17T17:26:59;10.77;;;6.17;;
22549;SDS011;11441;57.164;-2.120;2022-12-17T17:29:26;7.30;;;5.10;;
22549;SDS011;11441;57.164;-2.120;2022-12-17T17:32:12;10.43;;;4.33;;
22549;SDS011;11441;57.164;-2.120;2022-12-17T17:34:39;6.13;;;4.23;;
22549;SDS011;11441;57.164;-2.120;2022-12-17T17:37:06;9.47;;;3.43;;
22549;SDS011;11441;57.164;-2.120;2022-12-17T17:39:33;3.37;;;2.77;;
22549;SDS011;11441;57.164;-2.120;2022-12-17T17:42:00;8.10;;;3.70;;
22549;SDS011;11441;57.164;-2.120;2022-12-17T17:44:27;7.23;;;3.87;;
22549;SDS011;11441;57.164;-2.120;2022-12-17T17:46:54;9.97;;;4.20;;
22549;SDS011;11441;57.164;-2.120;2022-12-17T17:49:21;9.13;;;5.50;;
22549;SDS011;11441;57.164;-2.120;2022-12-17T17:51:49;4.70;;;3.60;;
22549;SDS011;11441;57.164;-2.120;2022-12-17T17:54:36;14.73;;;7.57;;
22549;SDS011;11441;57.164;-2.120;2022-12-17T17:57:05;14.90;;;7.83;;
22549;SDS011;11441;57.164;-2.120;2022-12-17T17:59:32;16.93;;;8.03;;
22549;SDS011;11441;57.164;-2.120;2022-12-17T18:02:00;20.23;;;9.10;;
22549;SDS011;11441;57.164;-2.120;2022-12-17T18:04:44;15.60;;;8.07;;
22549;SDS011;11441;57.164;-2.120;2022-12-17T18:07:50;15.23;;;8.17;;
22549;SDS011;11441;57.164;-2.120;2022-12-17T18:10:17;17.07;;;9.33;;
22549;SDS011;11441;57.164;-2.120;2022-12-17T18:12:45;17.53;;;9.70;;
22549;SDS011;11441;57.164;-2.120;2022-12-17T18:15:30;16.03;;;9.37;;
22549;SDS011;11441;57.164;-2.120;2022-12-17T18:23:57;16.70;;;9.33;;
22549;SDS011;11441;57.164;-2.120;2022-12-17T18:26:27;14.37;;;8.60;;
22549;SDS011;11441;57.164;-2.120;2022-12-17T18:28:56;11.83;;;7.47;;
22549;SDS011;11441;57.164;-2.120;2022-12-17T18:31:29;13.10;;;8.30;;
22549;SDS011;11441;57.164;-2.120;2022-12-17T18:34:36;11.90;;;6.57;;